Terminal Aerodrome Forecast
Issued by NWS Sterling, VA

Home | Current Version | Previous Version | Text Only | Print | Product List | Glossary On
Versions: 1 2 3 4 5 6 7 8 9 10 11 12 13 14 15 16 17 18 19 20 21 22
000
FTUS41 KLWX 211500 AAA
TAFBWI
TAF AMD
KBWI 211530Z 2116/2218 25003KT P6SM SCT060 SCT140 SCT250
     FM212000 15006KT P6SM SCT030 BKN150
     FM212100 17006KT P6SM VCTS SCT030CB BKN150
     FM212200 24004KT P6SM VCTS SCT030CB BKN200
     FM220100 17004KT P6SM VCTS SCT030CB BKN200
     FM220400 VRB03KT P6SM BKN120=

USA.gov is the U.S. government's official web portal to all federal, state and local government web resources and services.